sensor_id;sensor_type;location;lat;lon;timestamp;pressure;altitude;pressure_sealevel;temperature;humidity
30819;BME280;17546;42.674;23.284;2024-02-14T00:01:52;94450.97;;;11.00;49.10
30819;BME280;17546;42.674;23.284;2024-02-14T00:04:18;94451.94;;;10.18;51.15
30819;BME280;17546;42.674;23.284;2024-02-14T00:06:44;94444.72;;;10.65;49.87
30819;BME280;17546;42.674;23.284;2024-02-14T00:09:10;94446.97;;;10.72;50.30
30819;BME280;17546;42.674;23.284;2024-02-14T00:11:36;94433.59;;;10.93;49.12
30819;BME280;17546;42.674;23.284;2024-02-14T00:14:02;94450.75;;;10.52;50.30
30819;BME280;17546;42.674;23.284;2024-02-14T00:16:27;94468.41;;;10.61;50.11
30819;BME280;17546;42.674;23.284;2024-02-14T00:18:55;94474.16;;;10.40;50.57
30819;BME280;17546;42.674;23.284;2024-02-14T00:21:22;94465.88;;;10.85;49.98
30819;BME280;17546;42.674;23.284;2024-02-14T00:23:47;94453.78;;;10.66;49.76
30819;BME280;17546;42.674;23.284;2024-02-14T00:26:13;94456.78;;;10.90;49.06
30819;BME280;17546;42.674;23.284;2024-02-14T00:28:38;94480.47;;;10.80;49.95
30819;BME280;17546;42.674;23.284;2024-02-14T00:31:04;94477.22;;;10.76;49.59
30819;BME280;17546;42.674;23.284;2024-02-14T00:33:30;94480.22;;;11.01;49.31
30819;BME280;17546;42.674;23.284;2024-02-14T00:35:55;94476.94;;;10.80;49.71
30819;BME280;17546;42.674;23.284;2024-02-14T00:38:21;94453.78;;;10.43;50.11
30819;BME280;17546;42.674;23.284;2024-02-14T00:40:47;94462.81;;;11.11;48.70
30819;BME280;17546;42.674;23.284;2024-02-14T00:43:12;94469.06;;;11.23;48.89
30819;BME280;17546;42.674;23.284;2024-02-14T00:45:38;94489.25;;;11.18;48.56
30819;BME280;17546;42.674;23.284;2024-02-14T00:48:04;94476.66;;;11.06;48.77
30819;BME280;17546;42.674;23.284;2024-02-14T00:50:30;94478.94;;;10.90;49.72
30819;BME280;17546;42.674;23.284;2024-02-14T00:52:55;94476.38;;;11.15;48.84
30819;BME280;17546;42.674;23.284;2024-02-14T00:55:21;94473.88;;;11.23;48.34
30819;BME280;17546;42.674;23.284;2024-02-14T00:57:47;94461.28;;;10.93;49.27
30819;BME280;17546;42.674;23.284;2024-02-14T01:00:12;94479.44;;;10.94;49.14
30819;BME280;17546;42.674;23.284;2024-02-14T01:02:38;94483.00;;;10.89;49.60
30819;BME280;17546;42.674;23.284;2024-02-14T01:05:04;94492.81;;;10.79;49.55
30819;BME280;17546;42.674;23.284;2024-02-14T01:07:30;94468.03;;;11.26;47.93
30819;BME280;17546;42.674;23.284;2024-02-14T01:09:55;94488.50;;;11.12;48.69
30819;BME280;17546;42.674;23.284;2024-02-14T01:12:21;94488.44;;;11.34;48.37
30819;BME280;17546;42.674;23.284;2024-02-14T01:14:46;94471.06;;;11.34;47.62
30819;BME280;17546;42.674;23.284;2024-02-14T01:17:12;94460.28;;;11.08;48.29
30819;BME280;17546;42.674;23.284;2024-02-14T01:19:37;94492.03;;;10.50;50.54
30819;BME280;17546;42.674;23.284;2024-02-14T01:22:03;94488.75;;;10.97;48.91
30819;BME280;17546;42.674;23.284;2024-02-14T01:24:28;94483.75;;;10.90;48.74
30819;BME280;17546;42.674;23.284;2024-02-14T01:26:55;94460.81;;;11.01;48.06
30819;BME280;17546;42.674;23.284;2024-02-14T01:29:21;94481.34;;;11.56;47.68
30819;BME280;17546;42.674;23.284;2024-02-14T01:31:47;94479.63;;;11.30;47.84
30819;BME280;17546;42.674;23.284;2024-02-14T01:34:12;94479.81;;;11.55;47.37
30819;BME280;17546;42.674;23.284;2024-02-14T01:36:38;94481.75;;;11.83;46.99
30819;BME280;17546;42.674;23.284;2024-02-14T01:39:04;94483.88;;;11.54;47.32
30819;BME280;17546;42.674;23.284;2024-02-14T01:41:38;94482.13;;;11.45;47.42
30819;BME280;17546;42.674;23.284;2024-02-14T01:44:04;94462.31;;;11.02;48.34
30819;BME280;17546;42.674;23.284;2024-02-14T01:46:29;94463.28;;;11.21;47.79
30819;BME280;17546;42.674;23.284;2024-02-14T01:48:55;94476.94;;;10.96;48.65
30819;BME280;17546;42.674;23.284;2024-02-14T01:51:22;94479.97;;;10.99;48.71
30819;BME280;17546;42.674;23.284;2024-02-14T01:53:50;94479.63;;;11.36;47.79
30819;BME280;17546;42.674;23.284;2024-02-14T01:56:16;94471.03;;;11.40;47.59
30819;BME280;17546;42.674;23.284;2024-02-14T01:58:42;94465.16;;;11.71;46.86
30819;BME280;17546;42.674;23.284;2024-02-14T02:01:08;94479.75;;;11.77;47.12
30819;BME280;17546;42.674;23.284;2024-02-14T02:03:35;94489.41;;;11.54;47.48
30819;BME280;17546;42.674;23.284;2024-02-14T02:06:03;94465.06;;;11.94;46.26
30819;BME280;17546;42.674;23.284;2024-02-14T02:08:30;94485.06;;;11.70;47.06
30819;BME280;17546;42.674;23.284;2024-02-14T02:10:57;94461.56;;;11.07;47.95
30819;BME280;17546;42.674;23.284;2024-02-14T02:13:23;94471.06;;;11.28;47.71
30819;BME280;17546;42.674;23.284;2024-02-14T02:15:49;94481.88;;;11.37;47.52
30819;BME280;17546;42.674;23.284;2024-02-14T02:18:14;94461.06;;;10.97;47.90
30819;BME280;17546;42.674;23.284;2024-02-14T02:20:40;94486.69;;;11.43;47.40
30819;BME280;17546;42.674;23.284;2024-02-14T02:23:11;94488.53;;;11.01;48.21
30819;BME280;17546;42.674;23.284;2024-02-14T02:25:42;94475.41;;;11.07;47.98
30819;BME280;17546;42.674;23.284;2024-02-14T02:28:07;94497.31;;;11.16;47.63
30819;BME280;17546;42.674;23.284;2024-02-14T02:30:35;94474.44;;;10.76;47.96
30819;BME280;17546;42.674;23.284;2024-02-14T02:33:01;94481.09;;;11.48;46.90
30819;BME280;17546;42.674;23.284;2024-02-14T02:35:28;94475.16;;;11.05;47.08
30819;BME280;17546;42.674;23.284;2024-02-14T02:37:53;94494.31;;;11.14;47.61
30819;BME280;17546;42.674;23.284;2024-02-14T02:40:19;94501.84;;;11.19;47.59
30819;BME280;17546;42.674;23.284;2024-02-14T02:42:47;94509.44;;;10.79;48.23
30819;BME280;17546;42.674;23.284;2024-02-14T02:45:12;94495.53;;;11.24;46.82
30819;BME280;17546;42.674;23.284;2024-02-14T02:47:38;94492.56;;;10.88;47.46
30819;BME280;17546;42.674;23.284;2024-02-14T02:50:05;94522.19;;;11.55;46.51
30819;BME280;17546;42.674;23.284;2024-02-14T02:52:31;94498.84;;;11.06;47.14
30819;BME280;17546;42.674;23.284;2024-02-14T02:54:57;94500.34;;;11.12;47.21
30819;BME280;17546;42.674;23.284;2024-02-14T02:57:22;94526.78;;;11.30;46.65
30819;BME280;17546;42.674;23.284;2024-02-14T02:59:48;94515.44;;;11.17;46.51
30819;BME280;17546;42.674;23.284;2024-02-14T03:02:16;94532.56;;;11.44;46.65
30819;BME280;17546;42.674;23.284;2024-02-14T03:04:42;94523.28;;;11.13;47.27
30819;BME280;17546;42.674;23.284;2024-02-14T03:07:10;94528.31;;;11.20;46.45
30819;BME280;17546;42.674;23.284;2024-02-14T03:09:36;94521.25;;;10.91;46.98
30819;BME280;17546;42.674;23.284;2024-02-14T03:12:02;94536.38;;;11.29;46.89
30819;BME280;17546;42.674;23.284;2024-02-14T03:14:32;94539.66;;;11.28;46.52
30819;BME280;17546;42.674;23.284;2024-02-14T03:17:01;94531.09;;;11.20;46.57
30819;BME280;17546;42.674;23.284;2024-02-14T03:19:28;94526.25;;;11.37;46.17
30819;BME280;17546;42.674;23.284;2024-02-14T03:21:54;94541.66;;;11.22;46.12
30819;BME280;17546;42.674;23.284;2024-02-14T03:24:20;94552.75;;;11.38;45.85
30819;BME280;17546;42.674;23.284;2024-02-14T03:26:45;94533.38;;;11.05;46.12
30819;BME280;17546;42.674;23.284;2024-02-14T03:29:11;94532.84;;;10.84;47.31
30819;BME280;17546;42.674;23.284;2024-02-14T03:31:37;94540.66;;;11.36;45.87
30819;BME280;17546;42.674;23.284;2024-02-14T03:34:03;94558.00;;;11.59;45.46
30819;BME280;17546;42.674;23.284;2024-02-14T03:36:28;94575.38;;;11.65;45.67
30819;BME280;17546;42.674;23.284;2024-02-14T03:38:56;94561.06;;;11.22;46.08
30819;BME280;17546;42.674;23.284;2024-02-14T03:41:22;94563.09;;;11.32;45.52
30819;BME280;17546;42.674;23.284;2024-02-14T03:43:47;94574.19;;;11.10;45.87
30819;BME280;17546;42.674;23.284;2024-02-14T03:46:15;94571.38;;;11.49;45.55
30819;BME280;17546;42.674;23.284;2024-02-14T03:48:43;94569.91;;;10.92;46.17
30819;BME280;17546;42.674;23.284;2024-02-14T03:51:09;94568.66;;;11.10;45.77
30819;BME280;17546;42.674;23.284;2024-02-14T03:53:34;94579.72;;;11.32;45.73
30819;BME280;17546;42.674;23.284;2024-02-14T03:55:59;94564.09;;;10.84;46.41
30819;BME280;17546;42.674;23.284;2024-02-14T03:58:26;94577.22;;;11.01;46.25
30819;BME280;17546;42.674;23.284;2024-02-14T04:00:51;94588.03;;;11.49;45.31
30819;BME280;17546;42.674;23.284;2024-02-14T04:03:17;94566.38;;;11.08;45.89
30819;BME280;17546;42.674;23.284;2024-02-14T04:05:43;94574.66;;;11.48;45.26
30819;BME280;17546;42.674;23.284;2024-02-14T04:08:09;94584.75;;;11.45;45.42
30819;BME280;17546;42.674;23.284;2024-02-14T04:10:38;94587.28;;;10.92;46.27
30819;BME280;17546;42.674;23.284;2024-02-14T04:13:04;94603.66;;;11.24;45.90
30819;BME280;17546;42.674;23.284;2024-02-14T04:15:33;94598.63;;;11.34;45.75
30819;BME280;17546;42.674;23.284;2024-02-14T04:17:58;94600.38;;;11.37;45.23
30819;BME280;17546;42.674;23.284;2024-02-14T04:20:27;94599.38;;;11.46;44.99
30819;BME280;17546;42.674;23.284;2024-02-14T04:22:53;94579.97;;;11.06;45.68
30819;BME280;17546;42.674;23.284;2024-02-14T04:25:18;94592.31;;;11.11;45.46
30819;BME280;17546;42.674;23.284;2024-02-14T04:27:44;94588.81;;;11.05;46.03
30819;BME280;17546;42.674;23.284;2024-02-14T04:30:10;94584.75;;;10.72;46.32
30819;BME280;17546;42.674;23.284;2024-02-14T04:32:35;94609.22;;;11.35;45.46
30819;BME280;17546;42.674;23.284;2024-02-14T04:35:01;94591.31;;;11.48;44.96
30819;BME280;17546;42.674;23.284;2024-02-14T04:37:26;94610.22;;;11.21;45.98
30819;BME280;17546;42.674;23.284;2024-02-14T04:39:52;94615.00;;;11.26;45.62
30819;BME280;17546;42.674;23.284;2024-02-14T04:42:26;94608.69;;;10.98;46.44
30819;BME280;17546;42.674;23.284;2024-02-14T04:44:51;94592.31;;;11.11;45.96
30819;BME280;17546;42.674;23.284;2024-02-14T04:47:17;94603.84;;;10.59;47.19
30819;BME280;17546;42.674;23.284;2024-02-14T04:49:42;94634.66;;;11.17;46.36
30819;BME280;17546;42.674;23.284;2024-02-14T04:52:08;94614.75;;;11.02;46.44
30819;BME280;17546;42.674;23.284;2024-02-14T04:54:33;94614.00;;;11.07;46.25
30819;BME280;17546;42.674;23.284;2024-02-14T04:56:59;94613.72;;;10.77;46.63
30819;BME280;17546;42.674;23.284;2024-02-14T04:59:24;94625.53;;;10.66;46.60
30819;BME280;17546;42.674;23.284;2024-02-14T05:01:50;94627.53;;;10.60;47.09
30819;BME280;17546;42.674;23.284;2024-02-14T05:04:17;94616.34;;;9.83;48.89
30819;BME280;17546;42.674;23.284;2024-02-14T05:06:42;94647.25;;;10.24;48.26
30819;BME280;17546;42.674;23.284;2024-02-14T05:09:08;94647.66;;;10.54;47.58
30819;BME280;17546;42.674;23.284;2024-02-14T05:11:36;94621.56;;;10.18;48.04
30819;BME280;17546;42.674;23.284;2024-02-14T05:14:02;94649.22;;;9.69;49.03
30819;BME280;17546;42.674;23.284;2024-02-14T05:16:27;94643.75;;;9.81;48.94
30819;BME280;17546;42.674;23.284;2024-02-14T05:18:53;94646.53;;;9.81;49.36
30819;BME280;17546;42.674;23.284;2024-02-14T05:21:21;94636.50;;;9.46;49.61
30819;BME280;17546;42.674;23.284;2024-02-14T05:23:47;94663.88;;;10.24;48.23
30819;BME280;17546;42.674;23.284;2024-02-14T05:26:13;94642.31;;;9.91;48.58
30819;BME280;17546;42.674;23.284;2024-02-14T05:28:38;94671.03;;;9.99;48.42
30819;BME280;17546;42.674;23.284;2024-02-14T05:31:05;94676.25;;;10.29;48.09
30819;BME280;17546;42.674;23.284;2024-02-14T05:33:30;94672.69;;;10.28;47.88
30819;BME280;17546;42.674;23.284;2024-02-14T05:35:56;94663.28;;;10.09;48.34
30819;BME280;17546;42.674;23.284;2024-02-14T05:38:21;94662.44;;;9.91;48.54
30819;BME280;17546;42.674;23.284;2024-02-14T05:40:50;94687.38;;;10.40;47.60
30819;BME280;17546;42.674;23.284;2024-02-14T05:43:16;94701.06;;;10.12;48.13
30819;BME280;17546;42.674;23.284;2024-02-14T05:45:43;94678.19;;;10.23;47.88
30819;BME280;17546;42.674;23.284;2024-02-14T05:48:09;94698.47;;;10.03;48.14
30819;BME280;17546;42.674;23.284;2024-02-14T05:50:34;94669.06;;;10.05;47.39
30819;BME280;17546;42.674;23.284;2024-02-14T05:53:04;94704.53;;;9.69;48.81
30819;BME280;17546;42.674;23.284;2024-02-14T05:55:30;94693.25;;;10.10;47.66
30819;BME280;17546;42.674;23.284;2024-02-14T05:57:55;94695.00;;;10.13;47.99
30819;BME280;17546;42.674;23.284;2024-02-14T06:00:22;94698.78;;;10.65;46.20
30819;BME280;17546;42.674;23.284;2024-02-14T06:02:48;94707.56;;;10.09;47.41
30819;BME280;17546;42.674;23.284;2024-02-14T06:05:14;94721.88;;;10.45;46.78
30819;BME280;17546;42.674;23.284;2024-02-14T06:07:40;94738.84;;;10.21;47.19
30819;BME280;17546;42.674;23.284;2024-02-14T06:10:06;94703.31;;;10.13;46.71
30819;BME280;17546;42.674;23.284;2024-02-14T06:12:32;94714.88;;;10.55;46.22
30819;BME280;17546;42.674;23.284;2024-02-14T06:14:58;94710.59;;;10.11;46.83
30819;BME280;17546;42.674;23.284;2024-02-14T06:17:24;94733.38;;;10.86;45.52
30819;BME280;17546;42.674;23.284;2024-02-14T06:19:51;94727.63;;;10.30;46.46
30819;BME280;17546;42.674;23.284;2024-02-14T06:22:17;94734.78;;;10.59;45.56
30819;BME280;17546;42.674;23.284;2024-02-14T06:24:42;94707.28;;;10.01;46.67
30819;BME280;17546;42.674;23.284;2024-02-14T06:27:08;94726.00;;;10.18;45.87
30819;BME280;17546;42.674;23.284;2024-02-14T06:29:33;94737.53;;;10.53;45.82
30819;BME280;17546;42.674;23.284;2024-02-14T06:31:59;94760.28;;;10.26;46.33
30819;BME280;17546;42.674;23.284;2024-02-14T06:34:24;94725.59;;;9.99;45.99
30819;BME280;17546;42.674;23.284;2024-02-14T06:36:51;94739.16;;;9.91;46.95
30819;BME280;17546;42.674;23.284;2024-02-14T06:39:16;94751.44;;;10.65;45.58
30819;BME280;17546;42.674;23.284;2024-02-14T06:41:42;94740.56;;;10.12;46.10
30819;BME280;17546;42.674;23.284;2024-02-14T06:44:10;94752.22;;;10.71;45.31
30819;BME280;17546;42.674;23.284;2024-02-14T06:46:36;94746.38;;;10.20;46.51
30819;BME280;17546;42.674;23.284;2024-02-14T06:49:03;94741.84;;;10.54;45.70
30819;BME280;17546;42.674;23.284;2024-02-14T06:51:28;94769.97;;;10.42;45.77
30819;BME280;17546;42.674;23.284;2024-02-14T06:53:56;94771.50;;;10.48;45.65
30819;BME280;17546;42.674;23.284;2024-02-14T06:56:21;94778.31;;;10.47;45.50
30819;BME280;17546;42.674;23.284;2024-02-14T06:58:47;94759.06;;;10.81;45.15
30819;BME280;17546;42.674;23.284;2024-02-14T07:01:18;94758.25;;;10.26;45.56
30819;BME280;17546;42.674;23.284;2024-02-14T07:03:49;94767.81;;;10.63;45.39
30819;BME280;17546;42.674;23.284;2024-02-14T07:06:16;94738.63;;;9.55;46.63
30819;BME280;17546;42.674;23.284;2024-02-14T07:08:42;94742.53;;;9.43;46.36
30819;BME280;17546;42.674;23.284;2024-02-14T07:11:09;94784.00;;;10.01;45.83
30819;BME280;17546;42.674;23.284;2024-02-14T07:13:35;94772.09;;;9.89;45.94
30819;BME280;17546;42.674;23.284;2024-02-14T07:16:01;94806.47;;;10.08;45.80
30819;BME280;17546;42.674;23.284;2024-02-14T07:18:26;94804.75;;;10.48;45.12
30819;BME280;17546;42.674;23.284;2024-02-14T07:20:52;94789.03;;;9.97;45.87
30819;BME280;17546;42.674;23.284;2024-02-14T07:23:18;94791.38;;;9.78;46.14
30819;BME280;17546;42.674;23.284;2024-02-14T07:25:44;94775.13;;;10.28;45.16
30819;BME280;17546;42.674;23.284;2024-02-14T07:28:10;94801.28;;;10.65;44.41
30819;BME280;17546;42.674;23.284;2024-02-14T07:30:36;94810.88;;;10.64;44.42
30819;BME280;17546;42.674;23.284;2024-02-14T07:33:01;94814.53;;;10.44;44.93
30819;BME280;17546;42.674;23.284;2024-02-14T07:35:27;94813.56;;;10.52;44.71
30819;BME280;17546;42.674;23.284;2024-02-14T07:37:52;94800.09;;;9.97;45.31
30819;BME280;17546;42.674;23.284;2024-02-14T07:40:18;94810.94;;;9.22;47.39
30819;BME280;17546;42.674;23.284;2024-02-14T07:42:43;94793.59;;;9.73;46.04
30819;BME280;17546;42.674;23.284;2024-02-14T07:45:09;94799.22;;;9.85;45.42
30819;BME280;17546;42.674;23.284;2024-02-14T07:47:34;94800.16;;;9.50;46.56
30819;BME280;17546;42.674;23.284;2024-02-14T07:50:00;94786.00;;;9.16;47.42
30819;BME280;17546;42.674;23.284;2024-02-14T07:52:25;94773.41;;;9.67;46.01
30819;BME280;17546;42.674;23.284;2024-02-14T07:54:55;94810.09;;;9.62;46.77
30819;BME280;17546;42.674;23.284;2024-02-14T07:57:23;94788.06;;;9.21;47.31
30819;BME280;17546;42.674;23.284;2024-02-14T07:59:50;94795.16;;;8.81;48.50
30819;BME280;17546;42.674;23.284;2024-02-14T08:02:17;94802.59;;;9.16;47.79
30819;BME280;17546;42.674;23.284;2024-02-14T08:04:42;94811.03;;;9.07;48.32
30819;BME280;17546;42.674;23.284;2024-02-14T08:07:09;94834.75;;;9.40;48.18
30819;BME280;17546;42.674;23.284;2024-02-14T08:09:35;94811.19;;;9.70;46.79
30819;BME280;17546;42.674;23.284;2024-02-14T08:12:01;94810.19;;;9.01;48.40
30819;BME280;17546;42.674;23.284;2024-02-14T08:14:26;94822.13;;;9.33;47.65
30819;BME280;17546;42.674;23.284;2024-02-14T08:16:52;94807.38;;;9.42;47.09
30819;BME280;17546;42.674;23.284;2024-02-14T08:19:17;94833.97;;;9.60;46.73
30819;BME280;17546;42.674;23.284;2024-02-14T08:21:44;94852.81;;;9.35;47.69
30819;BME280;17546;42.674;23.284;2024-02-14T08:24:10;94810.25;;;9.53;47.05
30819;BME280;17546;42.674;23.284;2024-02-14T08:26:35;94832.97;;;10.21;45.89
30819;BME280;17546;42.674;23.284;2024-02-14T08:29:01;94823.47;;;9.69;46.44
30819;BME280;17546;42.674;23.284;2024-02-14T08:31:27;94843.22;;;9.83;46.60
30819;BME280;17546;42.674;23.284;2024-02-14T08:33:52;94846.31;;;9.38;47.14
30819;BME280;17546;42.674;23.284;2024-02-14T08:36:19;94829.94;;;9.61;46.33
30819;BME280;17546;42.674;23.284;2024-02-14T08:38:44;94863.66;;;9.39;46.93
30819;BME280;17546;42.674;23.284;2024-02-14T08:41:10;94857.94;;;9.68;46.04
30819;BME280;17546;42.674;23.284;2024-02-14T08:43:35;94844.25;;;8.92;47.39
30819;BME280;17546;42.674;23.284;2024-02-14T08:46:01;94850.41;;;9.02;47.23
30819;BME280;17546;42.674;23.284;2024-02-14T08:48:26;94849.16;;;9.44;46.32
30819;BME280;17546;42.674;23.284;2024-02-14T08:50:54;94874.31;;;9.25;46.56
30819;BME280;17546;42.674;23.284;2024-02-14T08:53:20;94871.13;;;9.33;46.54
30819;BME280;17546;42.674;23.284;2024-02-14T08:55:46;94855.91;;;8.81;47.48
30819;BME280;17546;42.674;23.284;2024-02-14T08:58:11;94866.56;;;9.29;45.89
30819;BME280;17546;42.674;23.284;2024-02-14T09:00:37;94883.50;;;9.17;46.97
30819;BME280;17546;42.674;23.284;2024-02-14T09:03:05;94863.47;;;8.45;47.97
30819;BME280;17546;42.674;23.284;2024-02-14T09:05:31;94877.00;;;9.40;46.46
30819;BME280;17546;42.674;23.284;2024-02-14T09:07:57;94878.94;;;8.93;47.41
30819;BME280;17546;42.674;23.284;2024-02-14T09:10:23;94890.53;;;8.97;47.88
30819;BME280;17546;42.674;23.284;2024-02-14T09:12:49;94889.34;;;9.45;47.01
30819;BME280;17546;42.674;23.284;2024-02-14T09:15:14;94876.50;;;9.21;47.44
30819;BME280;17546;42.674;23.284;2024-02-14T09:17:40;94884.56;;;8.84;48.39
30819;BME280;17546;42.674;23.284;2024-02-14T09:20:08;94879.84;;;9.25;47.66
30819;BME280;17546;42.674;23.284;2024-02-14T09:22:38;94881.88;;;9.51;46.99
30819;BME280;17546;42.674;23.284;2024-02-14T09:25:04;94897.03;;;8.94;47.88
30819;BME280;17546;42.674;23.284;2024-02-14T09:27:32;94905.13;;;8.98;47.40
30819;BME280;17546;42.674;23.284;2024-02-14T09:29:59;94871.97;;;9.18;47.02
30819;BME280;17546;42.674;23.284;2024-02-14T09:32:25;94906.31;;;9.52;46.52
30819;BME280;17546;42.674;23.284;2024-02-14T09:34:50;94909.06;;;9.79;46.35
30819;BME280;17546;42.674;23.284;2024-02-14T09:37:16;94902.41;;;9.65;46.43
30819;BME280;17546;42.674;23.284;2024-02-14T09:39:42;94889.56;;;9.88;46.28
30819;BME280;17546;42.674;23.284;2024-02-14T09:42:12;94909.41;;;9.86;45.92
30819;BME280;17546;42.674;23.284;2024-02-14T09:44:39;94917.56;;;9.28;46.99
30819;BME280;17546;42.674;23.284;2024-02-14T09:47:05;94909.50;;;9.71;46.01
30819;BME280;17546;42.674;23.284;2024-02-14T09:49:31;94886.88;;;9.47;46.09
30819;BME280;17546;42.674;23.284;2024-02-14T09:51:58;94888.94;;;9.52;45.88
30819;BME280;17546;42.674;23.284;2024-02-14T09:54:25;94891.94;;;9.75;45.26
30819;BME280;17546;42.674;23.284;2024-02-14T09:56:51;94882.16;;;9.53;45.55
30819;BME280;17546;42.674;23.284;2024-02-14T09:59:22;94891.91;;;9.48;46.24
30819;BME280;17546;42.674;23.284;2024-02-14T10:01:47;94888.16;;;9.51;45.68
30819;BME280;17546;42.674;23.284;2024-02-14T10:04:15;94860.72;;;9.48;45.54
30819;BME280;17546;42.674;23.284;2024-02-14T10:06:43;94887.03;;;10.16;44.66
30819;BME280;17546;42.674;23.284;2024-02-14T10:09:08;94882.44;;;9.35;45.76
30819;BME280;17546;42.674;23.284;2024-02-14T10:11:35;94866.28;;;9.74;45.40
30819;BME280;17546;42.674;23.284;2024-02-14T10:14:01;94875.56;;;9.24;46.11
30819;BME280;17546;42.674;23.284;2024-02-14T10:16:29;94884.19;;;9.32;46.07
30819;BME280;17546;42.674;23.284;2024-02-14T10:18:55;94884.81;;;9.21;46.46
30819;BME280;17546;42.674;23.284;2024-02-14T10:21:21;94875.56;;;9.24;46.30
30819;BME280;17546;42.674;23.284;2024-02-14T10:23:47;94873.06;;;8.85;46.99
30819;BME280;17546;42.674;23.284;2024-02-14T10:26:15;94898.97;;;9.29;46.66
30819;BME280;17546;42.674;23.284;2024-02-14T10:28:44;94872.97;;;9.41;45.54
30819;BME280;17546;42.674;23.284;2024-02-14T10:31:10;94891.72;;;9.31;46.54
30819;BME280;17546;42.674;23.284;2024-02-14T10:33:36;94894.63;;;9.43;45.81
30819;BME280;17546;42.674;23.284;2024-02-14T10:36:03;94860.34;;;8.73;46.74
30819;BME280;17546;42.674;23.284;2024-02-14T10:38:32;94891.69;;;9.72;45.44
30819;BME280;17546;42.674;23.284;2024-02-14T10:40:59;94870.94;;;10.14;44.48
30819;BME280;17546;42.674;23.284;2024-02-14T10:43:26;94884.75;;;9.16;46.26
30819;BME280;17546;42.674;23.284;2024-02-14T10:45:53;94851.84;;;8.97;46.45
30819;BME280;17546;42.674;23.284;2024-02-14T10:48:22;94889.09;;;9.22;46.77
30819;BME280;17546;42.674;23.284;2024-02-14T10:50:52;94884.56;;;9.66;45.36
30819;BME280;17546;42.674;23.284;2024-02-14T10:53:18;94884.44;;;9.81;45.05
30819;BME280;17546;42.674;23.284;2024-02-14T10:55:47;94890.88;;;9.92;44.31
30819;BME280;17546;42.674;23.284;2024-02-14T10:58:14;94881.88;;;10.29;43.46
30819;BME280;17546;42.674;23.284;2024-02-14T11:00:42;94892.97;;;9.77;44.51
30819;BME280;17546;42.674;23.284;2024-02-14T11:03:08;94871.38;;;9.55;44.94
30819;BME280;17546;42.674;23.284;2024-02-14T11:05:45;94895.91;;;9.68;44.57
30819;BME280;17546;42.674;23.284;2024-02-14T11:08:22;94897.34;;;10.16;44.02
30819;BME280;17546;42.674;23.284;2024-02-14T11:10:58;94873.88;;;9.79;44.14
30819;BME280;17546;42.674;23.284;2024-02-14T11:13:28;94907.41;;;10.13;44.61
30819;BME280;17546;42.674;23.284;2024-02-14T11:15:54;94879.13;;;10.29;43.76
30819;BME280;17546;42.674;23.284;2024-02-14T11:18:27;94883.56;;;10.21;44.16
30819;BME280;17546;42.674;23.284;2024-02-14T11:20:55;94897.91;;;10.51;43.68
30819;BME280;17546;42.674;23.284;2024-02-14T11:23:23;94886.84;;;10.51;43.26
30819;BME280;17546;42.674;23.284;2024-02-14T11:25:49;94894.81;;;10.12;44.19
30819;BME280;17546;42.674;23.284;2024-02-14T11:28:19;94897.56;;;10.70;43.68
30819;BME280;17546;42.674;23.284;2024-02-14T11:30:49;94876.53;;;10.52;43.17
30819;BME280;17546;42.674;23.284;2024-02-14T11:33:23;94877.56;;;10.54;42.92
30819;BME280;17546;42.674;23.284;2024-02-14T11:35:52;94901.53;;;10.63;43.02
30819;BME280;17546;42.674;23.284;2024-02-14T11:38:19;94890.78;;;10.77;43.18
30819;BME280;17546;42.674;23.284;2024-02-14T11:40:45;94899.09;;;10.77;42.95
30819;BME280;17546;42.674;23.284;2024-02-14T11:43:16;94895.78;;;11.10;42.58
30819;BME280;17546;42.674;23.284;2024-02-14T11:45:48;94889.44;;;10.61;42.85
30819;BME280;17546;42.674;23.284;2024-02-14T11:48:18;94891.75;;;10.36;43.69
30819;BME280;17546;42.674;23.284;2024-02-14T11:50:46;94899.28;;;10.04;44.48
30819;BME280;17546;42.674;23.284;2024-02-14T11:53:12;94896.28;;;11.14;42.93
30819;BME280;17546;42.674;23.284;2024-02-14T11:55:39;94880.72;;;10.79;42.99
30819;BME280;17546;42.674;23.284;2024-02-14T11:58:09;94874.59;;;10.64;43.09
30819;BME280;17546;42.674;23.284;2024-02-14T12:00:40;94876.00;;;10.48;42.95
30819;BME280;17546;42.674;23.284;2024-02-14T12:03:07;94880.84;;;10.59;43.33
30819;BME280;17546;42.674;23.284;2024-02-14T12:05:35;94892.69;;;10.96;42.45
30819;BME280;17546;42.674;23.284;2024-02-14T12:08:02;94883.00;;;11.35;41.81
30819;BME280;17546;42.674;23.284;2024-02-14T12:10:31;94880.34;;;11.63;41.18
30819;BME280;17546;42.674;23.284;2024-02-14T12:12:56;94895.09;;;12.03;40.56
30819;BME280;17546;42.674;23.284;2024-02-14T12:15:22;94905.34;;;11.69;40.55
30819;BME280;17546;42.674;23.284;2024-02-14T12:17:48;94885.22;;;11.14;41.15
30819;BME280;17546;42.674;23.284;2024-02-14T12:20:14;94882.03;;;11.38;41.11
30819;BME280;17546;42.674;23.284;2024-02-14T12:22:40;94876.78;;;11.57;40.60
30819;BME280;17546;42.674;23.284;2024-02-14T12:25:07;94847.50;;;11.45;40.55
30819;BME280;17546;42.674;23.284;2024-02-14T12:27:36;94887.06;;;11.40;40.77
30819;BME280;17546;42.674;23.284;2024-02-14T12:30:07;94888.91;;;11.54;40.89
30819;BME280;17546;42.674;23.284;2024-02-14T12:32:33;94867.75;;;11.73;40.79
30819;BME280;17546;42.674;23.284;2024-02-14T12:34:59;94860.63;;;11.50;40.83
30819;BME280;17546;42.674;23.284;2024-02-14T12:37:25;94856.66;;;11.73;40.43
30819;BME280;17546;42.674;23.284;2024-02-14T12:39:50;94892.56;;;12.05;40.19
30819;BME280;17546;42.674;23.284;2024-02-14T12:42:16;94863.81;;;12.19;39.82
30819;BME280;17546;42.674;23.284;2024-02-14T12:44:43;94865.81;;;12.36;39.46
30819;BME280;17546;42.674;23.284;2024-02-14T12:47:09;94874.91;;;12.19;39.83
30819;BME280;17546;42.674;23.284;2024-02-14T12:49:35;94879.94;;;11.93;40.27